TimeAKDT,TemperatureF,Dew PointF,Humidity,Sea Level PressureIn,VisibilityMPH,Wind Direction,Wind SpeedMPH,Gust SpeedMPH,PrecipitationIn,Events,Conditions,WindDirDegrees,DateUTC
12:56 AM,28.0,21.9,78,30.30,10.0,Calm,Calm,-,N/A,,Clear,0,2012-10-02 08:56:00
1:56 AM,27.0,21.9,81,30.30,10.0,East,3.5,-,N/A,,Clear,80,2012-10-02 09:56:00
2:56 AM,28.9,23.0,78,30.30,10.0,East,3.5,-,N/A,,Clear,80,2012-10-02 10:56:00
3:56 AM,28.0,21.9,78,30.30,10.0,Calm,Calm,-,N/A,,Clear,0,2012-10-02 11:56:00
4:56 AM,27.0,21.9,81,30.30,10.0,Calm,Calm,-,N/A,,Clear,0,2012-10-02 12:56:00
5:56 AM,27.0,21.0,78,30.28,10.0,ENE,6.9,-,N/A,,Clear,60,2012-10-02 13:56:00
6:30 AM,26.6,21.2,80,30.25,10.0,ENE,5.8,-,N/A,,Mostly Cloudy,70,2012-10-02 14:30:00
6:55 AM,26.6,21.2,80,30.27,10.0,East,5.8,-,N/A,,Overcast,80,2012-10-02 14:55:00
7:55 AM,28.4,23.0,80,30.26,10.0,ENE,5.8,-,N/A,,Mostly Cloudy,70,2012-10-02 15:55:00
8:55 AM,28.4,21.2,74,30.25,10.0,ENE,5.8,-,N/A,,Mostly Cloudy,60,2012-10-02 16:55:00
9:55 AM,30.2,21.2,69,30.24,10.0,ENE,5.8,-,N/A,,Mostly Cloudy,70,2012-10-02 17:55:00
10:55 AM,32.0,23.0,69,30.23,25.0,Calm,Calm,-,N/A,,Overcast,0,2012-10-02 18:55:00
11:55 AM,35.6,23.0,60,30.22,10.0,Variable,3.5,-,N/A,,Overcast,0,2012-10-02 19:55:00
12:55 PM,42.8,21.2,42,30.22,10.0,Variable,3.5,-,N/A,,Mostly Cloudy,0,2012-10-02 20:55:00
1:55 PM,44.6,23.0,43,35.34,10.0,Variable,4.6,-,N/A,,Overcast,0,2012-10-02 21:55:00
2:55 PM,46.4,21.2,37,30.19,13.0,East,2.3,-,N/A,,Overcast,90,2012-10-02 22:55:00
3:55 PM,46.4,21.2,37,30.17,13.0,East,4.6,-,N/A,,Overcast,90,2012-10-02 23:55:00
4:55 PM,46.4,21.2,37,30.16,13.0,East,4.6,-,N/A,,Overcast,100,2012-10-03 00:55:00
5:55 PM,44.6,21.2,39,30.15,13.0,East,3.5,-,N/A,,Overcast,80,2012-10-03 01:55:00
6:55 PM,42.8,21.2,42,30.15,13.0,NNE,2.3,-,N/A,,Overcast,30,2012-10-03 02:55:00
7:55 PM,37.4,24.8,60,30.16,13.0,East,2.3,-,N/A,,Overcast,80,2012-10-03 03:55:00
8:55 PM,39.2,23.0,52,30.15,10.0,East,3.5,-,N/A,,Overcast,80,2012-10-03 04:55:00
9:55 PM,39.2,23.0,52,30.15,10.0,ENE,1.2,-,N/A,,Overcast,60,2012-10-03 05:55:00
10:56 PM,35.1,25.0,67,30.16,10.0,ESE,3.5,-,N/A,,Overcast,120,2012-10-03 06:56:00
11:56 PM,37.9,24.1,57,30.17,10.0,ESE,3.5,-,N/A,,Overcast,110,2012-10-03 07:56:00